createdAt,value
2017-11-18T00:01:10.693Z,26.48
2017-11-18T00:03:44.941Z,26.75
2017-11-18T00:06:25.484Z,26.48
2017-11-18T00:08:54.600Z,25.35
2017-11-18T00:11:23.846Z,23.87
2017-11-18T00:13:53.738Z,25.90
2017-11-18T00:16:25.007Z,25.95
2017-11-18T00:18:54.455Z,27.05
2017-11-18T00:21:23.544Z,26.40
2017-11-18T00:23:52.552Z,25.05
2017-11-18T00:26:24.423Z,27.95
2017-11-18T00:28:53.554Z,25.73
2017-11-18T00:31:24.941Z,26.15
2017-11-18T00:33:54.079Z,25.85
2017-11-18T00:36:23.922Z,26.33
2017-11-18T00:38:52.894Z,26.65
2017-11-18T00:41:22.778Z,24.95
2017-11-18T00:43:51.772Z,25.88
2017-11-18T00:46:20.782Z,24.52
2017-11-18T00:48:50.566Z,25.70
2017-11-18T00:51:19.623Z,24.33
2017-11-18T00:53:48.621Z,24.42
2017-11-18T00:56:17.641Z,25.55
2017-11-18T00:58:47.441Z,25.58
2017-11-18T01:01:17.236Z,26.20
2017-11-18T01:03:46.761Z,28.02
2017-11-18T01:06:15.836Z,27.83
2017-11-18T01:08:45.643Z,25.30
2017-11-18T01:11:16.230Z,26.87
2017-11-18T01:13:45.253Z,27.27
2017-11-18T01:16:15.402Z,27.45
2017-11-18T01:18:44.391Z,26.80
2017-11-18T01:21:13.452Z,26.50
2017-11-18T01:23:43.546Z,25.88
2017-11-18T01:26:12.578Z,26.52
2017-11-18T01:28:41.636Z,25.40
2017-11-18T01:31:11.602Z,25.02
2017-11-18T01:33:40.679Z,23.95
2017-11-18T01:36:09.799Z,23.70
2017-11-18T01:38:38.822Z,25.33
2017-11-18T01:41:07.940Z,23.58
2017-11-18T01:43:37.010Z,23.17
2017-11-18T01:46:06.246Z,24.60
2017-11-18T01:48:40.479Z,23.55
2017-11-18T01:51:09.518Z,24.30
2017-11-18T01:53:38.563Z,24.05
2017-11-18T01:56:07.692Z,22.00
2017-11-18T01:58:36.741Z,23.75
2017-11-18T02:01:06.679Z,21.75
2017-11-18T02:03:35.712Z,21.45
2017-11-18T02:06:05.703Z,24.40
2017-11-18T02:08:34.830Z,23.95
2017-11-18T02:11:03.889Z,23.10
2017-11-18T02:13:32.986Z,23.48
2017-11-18T02:16:02.061Z,26.12
2017-11-18T02:18:31.178Z,24.17
2017-11-18T02:21:00.328Z,22.10
2017-11-18T02:23:30.350Z,22.90
2017-11-18T02:26:00.307Z,22.98
2017-11-18T02:28:29.512Z,22.37
2017-11-18T02:30:58.816Z,25.33
2017-11-18T02:33:28.132Z,22.95
2017-11-18T02:35:58.073Z,24.90
2017-11-18T02:38:28.211Z,25.08
2017-11-18T02:40:58.147Z,23.45
2017-11-18T02:43:27.459Z,23.12
2017-11-18T02:45:56.897Z,21.55
2017-11-18T02:48:26.347Z,22.05
2017-11-18T02:50:55.466Z,20.52
2017-11-18T02:53:24.667Z,20.58
2017-11-18T02:55:54.509Z,21.52
2017-11-18T02:58:23.709Z,23.62
2017-11-18T03:00:52.870Z,23.25
2017-11-18T03:03:21.923Z,23.35
2017-11-18T03:05:51.708Z,22.83
2017-11-18T03:08:20.803Z,21.70
2017-11-18T03:10:49.850Z,21.85
2017-11-18T03:13:18.916Z,21.70
2017-11-18T03:18:32.175Z,21.25
2017-11-18T03:21:02.040Z,20.88
2017-11-18T03:23:31.248Z,21.23
2017-11-18T03:26:00.664Z,21.02
2017-11-18T03:28:30.632Z,19.50
2017-11-18T03:30:59.781Z,18.83
2017-11-18T03:33:29.815Z,19.98
2017-11-18T03:35:58.866Z,17.17
2017-11-18T03:38:30.331Z,18.30
2017-11-18T03:40:59.392Z,18.60
2017-11-18T03:43:28.519Z,19.25
2017-11-18T03:45:57.643Z,17.77
2017-11-18T03:48:27.588Z,18.67
2017-11-18T03:50:56.655Z,21.15
2017-11-18T03:53:26.496Z,19.77
2017-11-18T03:55:55.645Z,19.75
2017-11-18T03:58:25.503Z,20.42
2017-11-18T04:00:57.415Z,19.25
2017-11-18T04:03:26.615Z,19.17
2017-11-18T04:05:56.672Z,20.37
2017-11-18T04:08:25.843Z,19.27
2017-11-18T04:10:55.638Z,17.23
2017-11-18T04:13:24.954Z,19.80
2017-11-18T04:15:54.778Z,19.67
2017-11-18T04:18:23.902Z,21.12
2017-11-18T04:20:53.265Z,19.67
2017-11-18T04:23:23.254Z,20.33
